createdAt,value
2023-02-05T00:00:10.667Z,12.75
2023-02-05T00:02:38.416Z,11.57
2023-02-05T00:05:07.763Z,12.45
2023-02-05T00:07:35.647Z,12.43
2023-02-05T00:10:03.500Z,13.10
2023-02-05T00:12:31.256Z,12.90
2023-02-05T00:14:59.046Z,13.65
2023-02-05T00:17:26.853Z,13.73
2023-02-05T00:19:54.597Z,14.07
2023-02-05T00:22:23.851Z,14.48
2023-02-05T00:24:51.624Z,14.18
2023-02-05T00:27:19.441Z,15.02
2023-02-05T00:29:47.198Z,14.98
2023-02-05T00:32:14.975Z,15.63
2023-02-05T00:34:43.060Z,15.23
2023-02-05T00:37:10.843Z,15.15
2023-02-05T00:39:40.114Z,16.13
2023-02-05T00:42:07.954Z,15.52
2023-02-05T00:44:35.996Z,15.27
2023-02-05T00:47:03.799Z,15.63
2023-02-05T00:49:31.571Z,15.27
2023-02-05T00:51:59.366Z,15.38
2023-02-05T00:54:27.271Z,14.93
2023-02-05T00:56:56.402Z,15.00
2023-02-05T00:59:24.198Z,15.88
2023-02-05T01:01:52.063Z,16.63
2023-02-05T01:04:21.512Z,15.80
2023-02-05T01:06:49.336Z,15.98
2023-02-05T01:09:17.126Z,15.90
2023-02-05T01:11:45.192Z,15.80
2023-02-05T01:14:14.335Z,16.75
2023-02-05T01:16:42.167Z,16.38
2023-02-05T01:19:09.980Z,16.27
2023-02-05T01:21:37.741Z,16.30
2023-02-05T01:24:06.426Z,16.40
2023-02-05T01:26:34.185Z,16.60
2023-02-05T01:29:01.985Z,15.93
2023-02-05T01:31:31.365Z,17.10
2023-02-05T01:33:59.200Z,17.30
2023-02-05T01:36:26.991Z,16.20
2023-02-05T01:38:54.914Z,17.58
2023-02-05T01:41:22.668Z,16.08
2023-02-05T01:44:07.617Z,16.92
2023-02-05T01:46:37.817Z,16.67
2023-02-05T01:49:08.487Z,16.17
2023-02-05T01:51:38.516Z,16.77
2023-02-05T01:54:08.052Z,15.63
2023-02-05T01:56:40.990Z,18.30
2023-02-05T01:59:12.882Z,16.35
2023-02-05T02:01:43.966Z,16.05
2023-02-05T02:04:15.554Z,15.82
2023-02-05T02:06:43.401Z,16.25
2023-02-05T02:09:12.203Z,15.95
2023-02-05T02:11:43.646Z,14.75
2023-02-05T02:16:42.464Z,14.68
2023-02-05T02:19:18.434Z,15.00
2023-02-05T02:22:12.758Z,14.65
2023-02-05T02:25:16.577Z,14.00
2023-02-05T02:27:54.371Z,13.65
2023-02-05T02:30:27.882Z,13.55
2023-02-05T02:33:06.594Z,12.73
2023-02-05T02:35:44.529Z,13.07
2023-02-05T02:38:19.895Z,13.38
2023-02-05T02:40:54.013Z,12.13
2023-02-05T02:43:29.459Z,12.50
2023-02-05T02:46:02.111Z,12.57
2023-02-05T02:48:33.376Z,12.15
2023-02-05T02:51:03.121Z,10.95
2023-02-05T02:53:38.031Z,11.60
2023-02-05T02:56:08.405Z,11.98
2023-02-05T02:58:42.527Z,11.70
2023-02-05T03:01:12.724Z,11.73
2023-02-05T03:03:46.105Z,12.48
2023-02-05T03:06:17.077Z,11.43
2023-02-05T03:09:01.658Z,12.00
2023-02-05T03:11:30.635Z,12.27
2023-02-05T03:13:59.995Z,11.38
2023-02-05T03:16:32.862Z,11.05
2023-02-05T03:19:02.831Z,10.02
2023-02-05T03:21:36.322Z,10.10
2023-02-05T03:24:04.939Z,9.65
2023-02-05T03:26:36.043Z,9.05
2023-02-05T03:29:19.657Z,8.70
2023-02-05T03:32:02.488Z,8.07
2023-02-05T03:34:42.800Z,8.35
2023-02-05T03:37:17.642Z,8.30
2023-02-05T03:39:54.621Z,7.68
2023-02-05T03:42:34.979Z,7.97
2023-02-05T03:45:31.702Z,7.20
2023-02-05T03:48:27.234Z,7.15
2023-02-05T03:51:00.961Z,6.30
2023-02-05T03:53:37.447Z,6.85
2023-02-05T03:56:09.989Z,6.78
2023-02-05T03:58:42.215Z,6.72
2023-02-05T04:01:12.880Z,6.50
2023-02-05T04:03:43.381Z,6.38
2023-02-05T04:06:12.773Z,6.95
2023-02-05T04:08:41.009Z,5.93
2023-02-05T04:11:09.486Z,5.95
2023-02-05T04:13:37.705Z,5.75
2023-02-05T04:16:07.345Z,6.30
2023-02-05T04:18:36.539Z,5.90
2023-02-05T04:21:04.672Z,5.40
2023-02-05T04:23:34.319Z,5.05
2023-02-05T04:26:02.552Z,5.32
2023-02-05T04:28:38.824Z,5.47
2023-02-05T04:31:09.308Z,5.38
2023-02-05T04:33:39.760Z,5.47
2023-02-05T04:36:09.302Z,5.38
2023-02-05T04:38:37.203Z,5.25
2023-02-05T04:41:05.166Z,4.88
2023-02-05T04:43:32.926Z,5.20
2023-02-05T04:46:06.355Z,5.40
2023-02-05T04:48:34.328Z,4.80
2023-02-05T04:51:07.273Z,5.78
2023-02-05T04:53:35.087Z,5.22
2023-02-05T04:56:07.811Z,6.00
2023-02-05T04:58:35.614Z,5.28
2023-02-05T05:01:03.536Z,5.22
2023-02-05T05:03:31.951Z,5.50
2023-02-05T05:06:06.399Z,5.35
2023-02-05T05:08:34.410Z,5.25
2023-02-05T05:11:08.189Z,4.38
2023-02-05T05:13:36.588Z,4.68
2023-02-05T05:16:05.963Z,4.20
2023-02-05T05:18:34.883Z,4.47
2023-02-05T05:21:03.102Z,3.72
2023-02-05T05:23:32.446Z,3.42
2023-02-05T05:26:00.303Z,3.38
2023-02-05T05:28:28.125Z,3.10
2023-02-05T05:30:56.282Z,3.10
2023-02-05T05:33:24.108Z,3.13
2023-02-05T05:35:51.872Z,3.13
2023-02-05T05:38:19.674Z,2.80
2023-02-05T05:41:06.154Z,3.25
2023-02-05T05:43:49.361Z,2.70
2023-02-05T05:46:21.887Z,2.83
2023-02-05T05:48:51.214Z,2.08
2023-02-05T05:51:19.395Z,1.67
2023-02-05T05:53:48.004Z,1.65
2023-02-05T05:56:18.232Z,1.63
2023-02-05T05:58:46.396Z,1.30
2023-02-05T06:01:15.708Z,1.48
2023-02-05T06:03:43.739Z,1.75
2023-02-05T06:06:13.482Z,1.52
2023-02-05T06:08:41.315Z,1.65
2023-02-05T06:11:09.168Z,1.63
2023-02-05T06:13:38.428Z,1.40
2023-02-05T06:16:07.345Z,1.40
2023-02-05T06:18:35.154Z,1.45
2023-02-05T06:21:03.531Z,1.25
2023-02-05T06:23:31.406Z,1.60
2023-02-05T06:25:59.491Z,1.10
2023-02-05T06:28:27.332Z,1.42
2023-02-05T06:30:56.512Z,1.35
2023-02-05T06:33:24.378Z,0.82
2023-02-05T06:35:52.249Z,0.90
2023-02-05T06:38:19.992Z,1.10
2023-02-05T06:40:48.295Z,1.13
2023-02-05T06:43:16.223Z,1.30
2023-02-05T06:45:44.030Z,1.17
2023-02-05T06:48:13.218Z,1.20
2023-02-05T06:50:41.087Z,1.10
2023-02-05T06:53:11.086Z,1.02
2023-02-05T06:55:39.539Z,1.50
2023-02-05T06:58:07.758Z,1.35
2023-02-05T07:00:35.945Z,1.30
2023-02-05T07:03:04.162Z,1.55
2023-02-05T07:05:34.323Z,1.23
2023-02-05T07:08:03.974Z,1.42
2023-02-05T07:10:31.933Z,1.33
2023-02-05T07:12:59.735Z,1.45
2023-02-05T07:15:27.486Z,1.75
2023-02-05T07:17:55.274Z,1.38
2023-02-05T07:20:23.537Z,1.92
2023-02-05T07:22:52.670Z,1.38
2023-02-05T07:25:20.429Z,1.63
2023-02-05T07:27:48.292Z,1.73
2023-02-05T07:30:16.797Z,2.13
2023-02-05T07:32:44.571Z,1.77
2023-02-05T07:35:12.329Z,2.10
2023-02-05T07:37:40.256Z,2.05
2023-02-05T07:40:10.670Z,2.10
2023-02-05T07:42:38.450Z,2.35
2023-02-05T07:45:09.077Z,2.03
2023-02-05T07:47:36.898Z,2.10
2023-02-05T07:50:06.161Z,2.15
2023-02-05T07:52:34.609Z,1.98
2023-02-05T07:55:02.389Z,2.38
2023-02-05T07:57:31.537Z,2.17
2023-02-05T07:59:59.354Z,2.10
2023-02-05T08:02:27.469Z,1.80
2023-02-05T08:04:55.252Z,2.28
2023-02-05T08:07:23.011Z,2.10
2023-02-05T08:09:50.758Z,2.17
2023-02-05T08:12:18.521Z,1.70
2023-02-05T08:14:47.640Z,2.38
2023-02-05T08:17:15.484Z,1.98
2023-02-05T08:19:43.289Z,2.38
2023-02-05T08:22:11.045Z,2.33
2023-02-05T08:24:38.780Z,2.08
2023-02-05T08:27:06.583Z,2.20
2023-02-05T08:29:34.387Z,2.33
2023-02-05T08:32:03.580Z,2.20
2023-02-05T08:34:31.433Z,2.58
2023-02-05T08:36:59.896Z,2.33
2023-02-05T08:39:27.702Z,2.42
2023-02-05T08:41:57.056Z,2.53
2023-02-05T08:44:25.077Z,3.00
2023-02-05T08:46:52.835Z,2.78
2023-02-05T08:49:22.339Z,3.05
2023-02-05T08:51:50.288Z,4.05
2023-02-05T08:54:18.232Z,3.30
2023-02-05T08:56:47.035Z,5.47
2023-02-05T08:59:14.848Z,3.47
2023-02-05T09:01:43.312Z,3.33
2023-02-05T09:04:14.457Z,2.88
2023-02-05T09:09:12.426Z,2.70
2023-02-05T09:11:40.499Z,3.47
2023-02-05T09:14:09.218Z,2.90
2023-02-05T09:16:37.177Z,3.00
2023-02-05T09:19:05.278Z,2.55
2023-02-05T09:21:33.096Z,3.05
2023-02-05T09:24:02.245Z,3.45
2023-02-05T09:26:30.059Z,2.83
2023-02-05T09:28:58.807Z,3.97
2023-02-05T09:31:26.672Z,3.10
2023-02-05T09:33:55.777Z,2.88
2023-02-05T09:36:24.599Z,2.80
2023-02-05T09:39:11.826Z,2.80
2023-02-05T09:44:22.230Z,2.70
2023-02-05T09:47:02.452Z,2.95
2023-02-05T09:49:35.822Z,2.92
2023-02-05T09:52:05.872Z,3.80
2023-02-05T09:54:40.069Z,2.80
2023-02-05T09:57:14.783Z,2.88
2023-02-05T09:59:45.776Z,3.28
2023-02-05T10:02:28.194Z,3.28
2023-02-05T10:04:56.031Z,2.85
2023-02-05T10:07:28.826Z,2.67
2023-02-05T10:10:18.625Z,2.03
2023-02-05T10:12:59.418Z,1.73
2023-02-05T10:15:38.452Z,2.15
2023-02-05T10:18:18.723Z,2.50
2023-02-05T10:21:01.194Z,2.78
2023-02-05T10:23:46.218Z,2.92
2023-02-05T10:26:15.091Z,3.30
2023-02-05T10:28:59.702Z,3.22
2023-02-05T10:31:42.110Z,3.00
2023-02-05T10:34:19.919Z,2.78
2023-02-05T10:36:51.799Z,3.15
2023-02-05T10:39:23.128Z,3.78
2023-02-05T10:41:58.058Z,3.15
2023-02-05T10:44:32.240Z,3.53
2023-02-05T10:47:06.700Z,3.50
2023-02-05T10:49:45.582Z,3.13
2023-02-05T10:52:15.238Z,2.67
2023-02-05T10:54:43.479Z,2.92
2023-02-05T10:57:14.940Z,3.03
2023-02-05T10:59:54.471Z,3.90
2023-02-05T11:02:24.380Z,2.75
2023-02-05T11:05:00.658Z,2.33
2023-02-05T11:07:34.074Z,2.90
2023-02-05T11:10:15.149Z,2.90
2023-02-05T11:12:44.861Z,2.95
2023-02-05T11:15:24.294Z,3.03
2023-02-05T11:17:53.672Z,3.38
2023-02-05T11:20:29.475Z,2.63
2023-02-05T11:23:08.266Z,3.22
2023-02-05T11:25:36.091Z,2.80
2023-02-05T11:28:05.817Z,2.65
2023-02-05T11:30:53.112Z,2.92
2023-02-05T11:33:31.234Z,3.53
2023-02-05T11:36:02.761Z,2.78
2023-02-05T11:38:35.078Z,2.83
2023-02-05T11:41:06.488Z,2.85
2023-02-05T11:43:36.461Z,2.65
2023-02-05T11:46:09.332Z,2.30
2023-02-05T11:48:43.458Z,2.45
2023-02-05T11:51:14.508Z,2.30
2023-02-05T11:56:25.107Z,2.80
2023-02-05T11:59:01.864Z,3.22
2023-02-05T12:01:34.707Z,2.70
2023-02-05T12:04:04.849Z,3.35
2023-02-05T12:06:38.272Z,2.33
2023-02-05T12:09:06.511Z,2.33
2023-02-05T12:12:16.745Z,2.95
2023-02-05T12:14:47.859Z,2.50
2023-02-05T12:19:58.397Z,2.75
2023-02-05T12:22:37.320Z,2.28
2023-02-05T12:25:21.713Z,3.53
2023-02-05T12:28:04.785Z,2.53
2023-02-05T12:30:49.216Z,3.35
2023-02-05T12:33:37.256Z,2.45
2023-02-05T12:36:23.021Z,2.85
2023-02-05T12:39:03.530Z,2.83
2023-02-05T12:41:37.545Z,2.60
2023-02-05T12:44:19.942Z,2.65
2023-02-05T12:47:00.428Z,2.60
2023-02-05T12:50:01.475Z,2.88
2023-02-05T12:52:45.802Z,2.83
2023-02-05T12:55:27.095Z,2.63
2023-02-05T12:57:59.339Z,2.95
2023-02-05T13:00:33.694Z,2.80
2023-02-05T13:03:11.246Z,2.85
2023-02-05T13:05:47.241Z,2.35
2023-02-05T13:08:20.183Z,2.53
2023-02-05T13:10:54.329Z,2.38
2023-02-05T13:13:28.827Z,2.90
2023-02-05T13:16:03.130Z,2.70
2023-02-05T13:18:34.441Z,3.13
2023-02-05T13:21:24.456Z,2.90
2023-02-05T13:24:11.791Z,2.95
2023-02-05T13:27:00.552Z,2.55
2023-02-05T13:29:32.912Z,2.90
2023-02-05T13:32:15.277Z,2.95
2023-02-05T13:34:44.614Z,2.78
2023-02-05T13:37:31.349Z,3.03
2023-02-05T13:40:32.524Z,2.75
2023-02-05T13:43:23.024Z,3.15
2023-02-05T13:46:20.805Z,3.00
2023-02-05T13:49:27.480Z,2.70
2023-02-05T13:52:36.843Z,3.17
2023-02-05T13:55:37.302Z,2.60
2023-02-05T13:58:21.327Z,2.88
2023-02-05T14:00:57.556Z,3.20
2023-02-05T14:03:36.028Z,2.72
2023-02-05T14:06:17.063Z,2.63
2023-02-05T14:08:45.419Z,2.88
2023-02-05T14:11:14.638Z,2.83
2023-02-05T14:13:42.555Z,3.17
2023-02-05T14:16:36.297Z,3.00
2023-02-05T14:19:22.526Z,2.45
2023-02-05T14:22:03.090Z,2.90
2023-02-05T14:24:48.640Z,2.90
2023-02-05T14:27:55.162Z,3.35
2023-02-05T14:30:57.222Z,3.03
2023-02-05T14:33:37.216Z,2.75
2023-02-05T14:36:34.354Z,3.47
2023-02-05T14:39:05.876Z,3.20
2023-02-05T14:41:50.553Z,3.53
2023-02-05T14:44:26.267Z,2.80
2023-02-05T14:47:00.963Z,2.97
2023-02-05T14:49:31.789Z,3.33
2023-02-05T14:52:01.719Z,3.13
2023-02-05T14:54:33.399Z,3.85
2023-02-05T14:57:17.563Z,4.20
2023-02-05T14:59:53.313Z,2.95
2023-02-05T15:02:58.483Z,3.33
2023-02-05T15:05:35.699Z,3.42
2023-02-05T15:08:13.372Z,3.47
2023-02-05T15:10:49.946Z,3.25
2023-02-05T15:13:18.799Z,3.45
2023-02-05T15:16:20.946Z,3.63
2023-02-05T15:18:51.862Z,3.22
2023-02-05T15:21:26.683Z,3.55
2023-02-05T15:24:00.572Z,3.45
2023-02-05T15:26:37.548Z,3.45
2023-02-05T15:29:08.601Z,3.58
2023-02-05T15:34:35.707Z,3.35
2023-02-05T15:37:15.822Z,3.17
2023-02-05T15:39:52.299Z,3.38
2023-02-05T15:42:23.825Z,3.28
2023-02-05T15:44:51.656Z,2.72
2023-02-05T15:47:21.954Z,3.08
2023-02-05T15:49:53.025Z,3.88
2023-02-05T15:54:52.738Z,3.40
2023-02-05T15:57:24.401Z,3.47
2023-02-05T16:02:22.637Z,3.22
2023-02-05T16:04:57.319Z,3.22
2023-02-05T16:07:29.098Z,3.60
2023-02-05T16:09:58.994Z,4.03
2023-02-05T16:12:27.524Z,3.10
2023-02-05T16:15:00.048Z,3.65
2023-02-05T16:17:35.023Z,3.78
2023-02-05T16:20:16.892Z,3.85
2023-02-05T16:22:52.479Z,3.55
2023-02-05T16:25:33.561Z,3.60
2023-02-05T16:28:03.913Z,2.95
2023-02-05T16:30:34.991Z,2.97
2023-02-05T16:33:05.623Z,3.83
2023-02-05T16:35:36.098Z,3.65
2023-02-05T16:38:09.089Z,3.78
2023-02-05T16:40:40.730Z,3.50
2023-02-05T16:43:21.865Z,3.47
2023-02-05T16:46:21.272Z,4.00
2023-02-05T16:48:53.961Z,3.67
2023-02-05T16:51:36.960Z,4.93
2023-02-05T16:54:28.133Z,4.05
2023-02-05T16:57:02.215Z,3.90
2023-02-05T16:59:34.325Z,4.22
2023-02-05T17:02:03.318Z,3.85
2023-02-05T17:04:34.634Z,3.95
2023-02-05T17:07:03.819Z,4.13
2023-02-05T17:09:35.908Z,3.58
2023-02-05T17:12:40.820Z,3.22
2023-02-05T17:15:32.048Z,3.28
2023-02-05T17:18:04.529Z,4.20
2023-02-05T17:20:34.210Z,4.20
2023-02-05T17:23:12.229Z,3.95
2023-02-05T17:25:44.330Z,3.67
2023-02-05T17:28:17.446Z,3.78
2023-02-05T17:30:46.677Z,3.78
2023-02-05T17:33:19.871Z,3.95
2023-02-05T17:35:48.038Z,4.22
2023-02-05T17:38:16.554Z,4.18
2023-02-05T17:40:45.774Z,4.35
2023-02-05T17:43:13.786Z,4.07
2023-02-05T17:45:44.189Z,3.78
2023-02-05T17:48:12.267Z,3.67
2023-02-05T17:50:40.229Z,3.15
2023-02-05T17:53:08.130Z,4.30
2023-02-05T17:55:36.052Z,3.50
2023-02-05T17:58:05.302Z,4.28
2023-02-05T18:00:33.533Z,3.95
2023-02-05T18:03:01.636Z,3.92
2023-02-05T18:05:29.538Z,3.80
2023-02-05T18:07:59.668Z,3.10
2023-02-05T18:10:29.994Z,3.45
2023-02-05T18:12:57.810Z,3.25
2023-02-05T18:15:27.860Z,3.88
2023-02-05T18:17:55.687Z,3.55
2023-02-05T18:20:23.814Z,3.45
2023-02-05T18:22:51.674Z,3.67
2023-02-05T18:25:19.634Z,3.80
2023-02-05T18:27:48.193Z,4.25
2023-02-05T18:30:16.241Z,3.45
2023-02-05T18:32:45.373Z,4.13
2023-02-05T18:35:14.712Z,3.65
2023-02-05T18:37:43.199Z,4.25
2023-02-05T18:40:13.157Z,3.75
2023-02-05T18:42:41.586Z,4.20
2023-02-05T18:45:10.534Z,4.30
2023-02-05T18:47:38.486Z,3.83
2023-02-05T18:50:10.263Z,3.70
2023-02-05T18:52:38.631Z,3.20
2023-02-05T18:55:07.646Z,3.78
2023-02-05T18:57:35.537Z,3.63
2023-02-05T19:00:03.441Z,3.70
2023-02-05T19:02:33.649Z,4.68
2023-02-05T19:05:02.733Z,4.20
2023-02-05T19:07:31.909Z,4.03
2023-02-05T19:09:59.688Z,3.88
2023-02-05T19:12:27.493Z,3.95
2023-02-05T19:14:55.307Z,3.63
2023-02-05T19:17:25.829Z,4.03
2023-02-05T19:19:53.753Z,3.83
2023-02-05T19:22:21.531Z,3.83
2023-02-05T19:24:50.692Z,3.95
2023-02-05T19:27:18.482Z,4.00
2023-02-05T19:29:46.469Z,4.38
2023-02-05T19:32:14.236Z,3.90
2023-02-05T19:34:43.304Z,4.05
2023-02-05T19:37:12.360Z,3.67
2023-02-05T19:39:40.229Z,3.65
2023-02-05T19:42:09.574Z,5.28
2023-02-05T19:44:37.370Z,4.88
2023-02-05T19:47:05.261Z,4.50
2023-02-05T19:49:33.035Z,4.20
2023-02-05T19:52:01.478Z,4.20
2023-02-05T19:54:30.383Z,4.00
2023-02-05T19:56:58.164Z,4.80
2023-02-05T19:59:27.652Z,3.63
2023-02-05T20:01:55.601Z,3.90
2023-02-05T20:04:25.605Z,3.45
2023-02-05T20:06:57.029Z,4.18
2023-02-05T20:09:25.256Z,4.35
2023-02-05T20:11:54.378Z,3.83
2023-02-05T20:14:22.681Z,3.80
2023-02-05T20:16:52.184Z,3.50
2023-02-05T20:19:20.473Z,4.20
2023-02-05T20:21:48.905Z,3.90
2023-02-05T20:24:17.420Z,4.00
2023-02-05T20:26:47.780Z,4.05
2023-02-05T20:29:34.857Z,3.70
2023-02-05T20:32:04.276Z,3.40
2023-02-05T20:34:34.706Z,4.18
2023-02-05T20:37:05.590Z,3.70
2023-02-05T20:39:35.125Z,3.50
2023-02-05T20:42:03.403Z,3.85
2023-02-05T20:44:34.770Z,4.07
2023-02-05T20:47:04.128Z,4.70
2023-02-05T20:49:31.983Z,3.67
2023-02-05T20:51:59.851Z,3.50
2023-02-05T20:54:27.902Z,4.72
2023-02-05T20:56:57.077Z,3.80
2023-02-05T20:59:25.258Z,3.97
2023-02-05T21:01:53.681Z,3.85
2023-02-05T21:04:23.112Z,4.20
2023-02-05T21:06:53.378Z,3.95
2023-02-05T21:09:21.745Z,3.67
2023-02-05T21:11:51.084Z,3.80
2023-02-05T21:14:18.872Z,4.00
2023-02-05T21:16:46.619Z,3.17
2023-02-05T21:19:14.457Z,3.30
2023-02-05T21:21:43.635Z,3.45
2023-02-05T21:24:14.450Z,3.67
2023-02-05T21:26:44.250Z,3.45
2023-02-05T21:29:13.609Z,3.50
2023-02-05T21:31:44.995Z,3.35
2023-02-05T21:34:15.614Z,3.90
2023-02-05T21:36:45.286Z,3.58
2023-02-05T21:39:15.688Z,4.05
2023-02-05T21:41:44.831Z,3.60
2023-02-05T21:44:12.984Z,3.17
2023-02-05T21:46:41.196Z,3.45
2023-02-05T21:49:09.071Z,4.07
2023-02-05T21:51:37.278Z,4.60
2023-02-05T21:54:07.240Z,4.30
2023-02-05T21:56:37.190Z,4.22
2023-02-05T21:59:05.695Z,4.40
2023-02-05T22:01:35.319Z,3.47
2023-02-05T22:04:06.095Z,3.63
2023-02-05T22:06:35.702Z,3.67
2023-02-05T22:09:08.169Z,3.42
2023-02-05T22:11:36.718Z,3.50
2023-02-05T22:14:04.512Z,4.13
2023-02-05T22:16:34.144Z,3.85
2023-02-05T22:19:03.003Z,3.35
2023-02-05T22:21:32.661Z,3.85
2023-02-05T22:24:02.202Z,3.90
2023-02-05T22:26:33.830Z,3.90
2023-02-05T22:29:02.134Z,4.55
2023-02-05T22:31:30.663Z,4.60
2023-02-05T22:33:58.778Z,4.45
2023-02-05T22:36:29.020Z,4.72
2023-02-05T22:38:57.334Z,4.00
2023-02-05T22:41:27.285Z,4.50
2023-02-05T22:43:58.016Z,4.10
2023-02-05T22:46:27.692Z,4.75
2023-02-05T22:48:56.677Z,4.20
2023-02-05T22:51:26.698Z,3.80
2023-02-05T22:53:55.670Z,3.65
2023-02-05T22:56:24.267Z,4.28
2023-02-05T22:58:53.043Z,4.43
2023-02-05T23:01:24.591Z,3.47
2023-02-05T23:03:52.646Z,3.65
2023-02-05T23:06:22.304Z,4.43
2023-02-05T23:08:52.448Z,3.78
2023-02-05T23:11:21.282Z,4.00
2023-02-05T23:13:49.371Z,3.42
2023-02-05T23:16:19.808Z,4.05
2023-02-05T23:18:56.253Z,4.40
2023-02-05T23:21:25.634Z,4.45
2023-02-05T23:23:53.497Z,3.95
2023-02-05T23:26:22.905Z,4.22
2023-02-05T23:28:51.905Z,3.80
2023-02-05T23:31:20.589Z,4.22
2023-02-05T23:33:49.805Z,3.70
2023-02-05T23:36:18.028Z,4.13
2023-02-05T23:38:46.013Z,4.13
2023-02-05T23:41:14.054Z,3.78
2023-02-05T23:43:41.872Z,4.10
2023-02-05T23:46:09.880Z,3.50
2023-02-05T23:48:37.687Z,3.67
2023-02-05T23:51:06.882Z,3.95
2023-02-05T23:53:34.663Z,4.00
2023-02-05T23:56:03.344Z,3.55
2023-02-05T23:58:31.094Z,3.28
